Shinyo Maru — 7JVV — position and weather

sailwx.info

Track history (hours):
 
Tides and Currents Weather Stations Pressure Air Temp Water Temp Dewpoint Dewpoint Depression Visibility Wind Speed Wind Dir Waves Ship Positions

Shinyo Maru

Last reported at 2018-Jun-14 04:49 UTC. Time now 2018-Jun-18 09:30 UTC.
Position N 35°39' E 139°46'.

Length 64 m; draft 4.6 m.

Type: Other ship. MMSI: 431328000.

Date/timePositionNaut miles runAvg speedWind from/ knotsBaromVisibWave heightAir tempDewpointWater temp
2018-Jun-14 04:49N 35°39' E 139°46'2 7.0
2018-Jun-14 04:30N 35°37' E 139°46'5 9.6
2018-Jun-14 03:58N 35°33' E 139°51'2 3.0
2018-Jun-14 03:26N 35°34' E 139°52'0 0.0
2018-Jun-14 02:59N 35°34' E 139°52'0 0.0
2018-Jun-14 02:29N 35°34' E 139°52'0 0.0
2018-Jun-14 01:59N 35°34' E 139°52'0 0.0
2018-Jun-14 01:29N 35°34' E 139°52'2 3.0
2018-Jun-14 00:59N 35°33' E 139°52'4 7.9
2018-Jun-14 00:30N 35°35' E 139°48'5 8.6
2018-Jun-13 23:58N 35°39' E 139°46'0 0.0
2018-Jun-13 13:23N 35°39' E 139°46'0 0.0
2018-Jun-13 11:53N 35°39' E 139°46'0 0.0
2018-Jun-13 11:11N 35°39' E 139°46'0 0.0
2018-Jun-13 06:35N 35°39' E 139°46'0 0.0
2018-Jun-13 06:17N 35°39' E 139°46'0 0.0
2018-Jun-13 05:53N 35°39' E 139°46'0 0.0
2018-Jun-13 05:29N 35°39' E 139°46'0 0.0
2018-Jun-12 23:05N 35°39' E 139°46'0 0.0
2018-Jun-12 15:59N 35°39' E 139°46'0 0.0
2018-Jun-12 15:29N 35°39' E 139°46'0 0.0
2018-Jun-12 14:59N 35°39' E 139°46'0 0.0
2018-Jun-12 14:23N 35°39' E 139°46'0 0.0
2018-Jun-12 13:59N 35°39' E 139°46'0 0.0
2018-Jun-12 12:35N 35°39' E 139°46'0 0.0
2018-Jun-12 12:29N 35°39' E 139°46'0 0.0
2018-Jun-12 11:53N 35°39' E 139°46'0 0.0
2018-Jun-12 11:23N 35°39' E 139°46'0 0.0
2018-Jun-12 02:17N 35°39' E 139°46'0 0.0
2018-Jun-12 01:11N 35°39' E 139°46'0 0.0
2018-Jun-12 00:53N 35°39' E 139°46'0 0.0
2018-Jun-12 00:17N 35°39' E 139°46'0 0.0
2018-Jun-11 22:17N 35°39' E 139°46'0 0.0
2018-Jun-11 21:53N 35°39' E 139°46'0 0.0
2018-Jun-11 21:23N 35°39' E 139°46'0 0.0
2018-Jun-11 15:53N 35°39' E 139°46'0 0.0
2018-Jun-11 15:29N 35°39' E 139°46'0 0.0
2018-Jun-11 14:17N 35°39' E 139°46'0 0.0
2018-Jun-11 13:53N 35°39' E 139°46'0 0.0
2018-Jun-11 13:11N 35°39' E 139°46'0 0.0
2018-Jun-11 12:59N 35°39' E 139°46'0 0.0
2018-Jun-11 11:53N 35°39' E 139°46'0 0.0
2018-Jun-11 11:29N 35°39' E 139°46'0 0.0
2018-Jun-11 10:41N 35°39' E 139°46'0 0.0
2018-Jun-11 10:17N 35°39' E 139°46'0 0.0
2018-Jun-10 21:41N 35°39' E 139°46'0 0.0
2018-Jun-10 21:23N 35°39' E 139°46'0 0.0
2018-Jun-10 19:41N 35°39' E 139°46'0 0.0
2018-Jun-10 19:29N 35°39' E 139°46'0 0.0
2018-Jun-10 18:41N 35°39' E 139°46'0 0.0
2018-Jun-10 13:59N 35°39' E 139°46'0 0.0
2018-Jun-10 08:11N 35°39' E 139°46'0 0.0
2018-Jun-10 07:59N 35°39' E 139°46'0 0.0
2018-Jun-10 05:53N 35°39' E 139°46'0 0.0
2018-Jun-10 05:29N 35°39' E 139°46'0 0.0
2018-Jun-10 03:35N 35°39' E 139°46'0 0.0
2018-Jun-10 03:23N 35°39' E 139°46'0 0.0
2018-Jun-10 02:47N 35°39' E 139°46'0 0.0
2018-Jun-10 02:23N 35°39' E 139°46'0 0.0
2018-Jun-10 00:41N 35°39' E 139°46'0 0.0
2018-Jun-10 00:29N 35°39' E 139°46'0 0.0
2018-Jun-09 23:41N 35°39' E 139°46'0 0.0
2018-Jun-09 21:29N 35°39' E 139°46'0 0.0
2018-Jun-09 20:59N 35°39' E 139°46'0 0.0
2018-Jun-09 20:17N 35°39' E 139°46'0 0.0
2018-Jun-09 19:47N 35°39' E 139°46'0 0.0
2018-Jun-09 18:41N 35°39' E 139°46'0 0.0
2018-Jun-09 18:23N 35°39' E 139°46'0 0.0
2018-Jun-09 17:05N 35°39' E 139°46'0 0.0
2018-Jun-09 14:47N 35°39' E 139°46'0 0.0
2018-Jun-09 14:29N 35°39' E 139°46'0 0.0
2018-Jun-09 13:41N 35°39' E 139°46'0 0.0
2018-Jun-09 13:05N 35°39' E 139°46'0 0.0
2018-Jun-09 12:41N 35°39' E 139°46'0 0.0
2018-Jun-09 12:11N 35°39' E 139°46'0 0.0
2018-Jun-09 11:53N 35°39' E 139°46'0 0.0
2018-Jun-09 10:59N 35°39' E 139°46'0 0.0
2018-Jun-09 10:17N 35°39' E 139°46'0 0.0
2018-Jun-09 09:41N 35°39' E 139°46'0 0.0
2018-Jun-09 09:23N 35°39' E 139°46'0 0.0
2018-Jun-09 08:59N 35°39' E 139°46'0 0.0
2018-Jun-09 07:41N 35°39' E 139°46'0 0.0
2018-Jun-09 07:29N 35°39' E 139°46'0 0.0
2018-Jun-09 06:59N 35°39' E 139°46'0 0.0
2018-Jun-09 06:05N 35°39' E 139°46'0 0.0
2018-Jun-09 05:47N 35°39' E 139°46'0 0.0
2018-Jun-09 05:23N 35°39' E 139°46'0 0.0
2018-Jun-09 04:59N 35°39' E 139°46'0 0.0
2018-Jun-09 00:11N 35°39' E 139°46'0 0.0
2018-Jun-08 23:41N 35°39' E 139°46'0 0.0
2018-Jun-08 23:29N 35°39' E 139°46'0 0.0
2018-Jun-08 22:23N 35°39' E 139°46'0 0.0
2018-Jun-08 20:47N 35°39' E 139°46'0 0.0
2018-Jun-08 20:23N 35°39' E 139°46'0 0.0
2018-Jun-08 19:59N 35°39' E 139°46'0 0.0
2018-Jun-08 19:29N 35°39' E 139°46'0 0.0
2018-Jun-08 18:35N 35°39' E 139°46'0 0.0
2018-Jun-08 18:23N 35°39' E 139°46'0 0.0
2018-Jun-08 15:05N 35°39' E 139°46'0 0.0
2018-Jun-08 13:35N 35°39' E 139°46'0 0.0
2018-Jun-08 13:29N 35°39' E 139°46'0 0.0
2018-Jun-08 12:53N 35°39' E 139°46'0 0.0
2018-Jun-08 12:29N 35°39' E 139°46'0 0.0
2018-Jun-08 11:59N 35°39' E 139°46'0 0.0
2018-Jun-08 09:35N 35°39' E 139°46'0 0.0
2018-Jun-08 09:23N 35°39' E 139°46'0 0.0
2018-Jun-08 08:53N 35°39' E 139°46'0 0.0
2018-Jun-08 04:41N 35°39' E 139°46'0 0.0
2018-Jun-08 00:17N 35°39' E 139°46'0 0.0
2018-Jun-07 23:53N 35°39' E 139°46'0 0.0
2018-Jun-07 23:23N 35°39' E 139°46'0 0.0
2018-Jun-07 22:59N 35°39' E 139°46'0 0.0
2018-Jun-07 22:17N 35°39' E 139°46'0 0.0
2018-Jun-07 21:59N 35°39' E 139°46'0 0.0
2018-Jun-07 21:29N 35°39' E 139°46'0 0.0
2018-Jun-07 20:17N 35°39' E 139°46'0 0.0
2018-Jun-07 19:53N 35°39' E 139°46'0 0.0
2018-Jun-07 18:59N 35°39' E 139°46'0 0.0
2018-Jun-07 18:23N 35°39' E 139°46'0 0.0
2018-Jun-07 17:59N 35°39' E 139°46'0 0.0
2018-Jun-07 17:23N 35°39' E 139°46'0 0.0
2018-Jun-07 15:11N 35°39' E 139°46'0 0.0
2018-Jun-07 14:17N 35°39' E 139°46'0 0.0
2018-Jun-07 13:59N 35°39' E 139°46'0 0.0
2018-Jun-07 13:29N 35°39' E 139°46'0 0.0
2018-Jun-07 12:59N 35°39' E 139°46'0 0.0
2018-Jun-07 10:53N 35°39' E 139°46'0 0.0
2018-Jun-07 10:23N 35°39' E 139°46'0 0.0
2018-Jun-07 04:47N 35°39' E 139°46'0 0.0
2018-Jun-07 01:17N 35°39' E 139°46'0 0.0
2018-Jun-07 00:59N 35°39' E 139°46'0 0.0
2018-Jun-07 00:29N 35°39' E 139°46'0 0.0
2018-Jun-06 23:59N 35°39' E 139°46'0 0.0
2018-Jun-06 23:23N 35°39' E 139°46'0 0.0
2018-Jun-06 22:53N 35°39' E 139°46'0 0.0
2018-Jun-06 22:23N 35°39' E 139°46'0 0.0
2018-Jun-06 21:59N 35°39' E 139°46'0 0.0
2018-Jun-06 21:23N 35°39' E 139°46'0 0.0
2018-Jun-06 20:59N 35°39' E 139°46'0 0.0
2018-Jun-06 20:29N 35°39' E 139°46'0 0.0
2018-Jun-06 19:47N 35°39' E 139°46'0 0.0
2018-Jun-06 19:29N 35°39' E 139°46'0 0.0
2018-Jun-06 18:53N 35°39' E 139°46'0 0.0
2018-Jun-06 18:29N 35°39' E 139°46'0 0.0
2018-Jun-06 17:53N 35°39' E 139°46'0 0.0
2018-Jun-06 17:29N 35°39' E 139°46'0 0.0
2018-Jun-06 16:17N 35°39' E 139°46'0 0.0
2018-Jun-06 15:35N 35°39' E 139°46'0 0.0
2018-Jun-06 15:23N 35°39' E 139°46'0 0.0
2018-Jun-06 14:53N 35°39' E 139°46'0 0.0
2018-Jun-06 14:23N 35°39' E 139°46'0 0.0
2018-Jun-06 13:41N 35°39' E 139°46'0 0.0
2018-Jun-06 13:05N 35°39' E 139°46'0 0.0
2018-Jun-06 11:41N 35°39' E 139°46'0 0.0
2018-Jun-06 11:17N 35°39' E 139°46'0 0.0
2018-Jun-06 10:46N 35°39' E 139°46'0 0.0
2018-Jun-06 06:05N 35°39' E 139°46'0 0.0
2018-Jun-06 05:53N 35°39' E 139°46'0 0.0
2018-Jun-06 03:53N 35°39' E 139°46'0 0.0
2018-Jun-06 03:22N 35°39' E 139°46'0 0.0
2018-Jun-06 01:59N 35°39' E 139°46'0 0.0
2018-Jun-06 01:22N 35°39' E 139°46'0 0.0
2018-Jun-05 22:46N 35°39' E 139°46'0 0.0
2018-Jun-05 22:28N 35°39' E 139°46'0 0.0
2018-Jun-05 21:52N 35°39' E 139°46'0 0.0
2018-Jun-05 21:28N 35°39' E 139°46'0 0.0
2018-Jun-05 20:46N 35°39' E 139°46'0 0.0
2018-Jun-05 19:28N 35°39' E 139°46'0 0.0
2018-Jun-05 18:58N 35°39' E 139°46'0 0.0
2018-Jun-05 18:28N 35°39' E 139°46'0 0.0
2018-Jun-05 17:52N 35°39' E 139°46'0 0.0
2018-Jun-05 17:22N 35°39' E 139°46'0 0.0
2018-Jun-05 16:58N 35°39' E 139°46'0 0.0
2018-Jun-05 16:28N 35°39' E 139°46'0 0.0
2018-Jun-05 15:17N 35°39' E 139°46'0 0.0
2018-Jun-05 14:58N 35°39' E 139°46'0 0.0
2018-Jun-05 14:28N 35°39' E 139°46'0 0.0
2018-Jun-05 13:10N 35°39' E 139°46'0 0.0
2018-Jun-05 12:04N 35°39' E 139°46'0 0.0
2018-Jun-05 11:58N 35°39' E 139°46'0 0.0
2018-Jun-05 11:16N 35°39' E 139°46'0 0.0
2018-Jun-05 10:58N 35°39' E 139°46'0 0.0
2018-Jun-05 08:22N 35°39' E 139°46'0 0.0
2018-Jun-05 07:04N 35°39' E 139°46'0 0.0
2018-Jun-05 06:58N 35°39' E 139°46'0 0.0
2018-Jun-05 02:34N 35°39' E 139°46'0 0.0
2018-Jun-04 23:28N 35°39' E 139°46'0 0.0
2018-Jun-04 22:58N 35°39' E 139°46'0 0.0
2018-Jun-04 21:52N 35°39' E 139°46'0 0.0
2018-Jun-04 21:28N 35°39' E 139°46'0 0.0
2018-Jun-04 20:46N 35°39' E 139°46'0 0.0
2018-Jun-04 18:46N 35°39' E 139°46'0 0.0
2018-Jun-04 17:16N 35°39' E 139°46'0 0.0
2018-Jun-04 16:58N 35°39' E 139°46'0 0.0
2018-Jun-04 16:22N 35°39' E 139°46'0 0.0
2018-Jun-04 15:52N 35°39' E 139°46'0 0.0
2018-Jun-04 15:28N 35°39' E 139°46'0 0.0
2018-Jun-04 14:52N 35°39' E 139°46'0 0.0
2018-Jun-04 14:16N 35°39' E 139°46'0 0.0
2018-Jun-04 11:58N 35°39' E 139°46'0 0.0
2018-Jun-04 10:40N 35°39' E 139°46'  
Track history (hours):
 
Tides and Currents Weather Stations Pressure Air Temp Water Temp Dewpoint Dewpoint Depression Visibility Wind Speed Wind Dir Waves Ship Positions

Shinyo Maru

Last reported at 2018-Jun-14 04:49 UTC. Time now 2018-Jun-18 09:30 UTC.
Position N 35°39' E 139°46'.

Length 64 m; draft 4.6 m.

Type: Other ship. MMSI: 431328000.

Date/timePositionNaut miles runAvg speedWind from/ knotsBaromVisibWave heightAir tempDewpointWater temp
2018-Jun-14 04:49N 35°39' E 139°46'2 7.0
2018-Jun-14 04:30N 35°37' E 139°46'5 9.6
2018-Jun-14 03:58N 35°33' E 139°51'2 3.0
2018-Jun-14 03:26N 35°34' E 139°52'0 0.0
2018-Jun-14 02:59N 35°34' E 139°52'0 0.0
2018-Jun-14 02:29N 35°34' E 139°52'0 0.0
2018-Jun-14 01:59N 35°34' E 139°52'0 0.0
2018-Jun-14 01:29N 35°34' E 139°52'2 3.0
2018-Jun-14 00:59N 35°33' E 139°52'4 7.9
2018-Jun-14 00:30N 35°35' E 139°48'5 8.6
2018-Jun-13 23:58N 35°39' E 139°46'0 0.0
2018-Jun-13 13:23N 35°39' E 139°46'0 0.0
2018-Jun-13 11:53N 35°39' E 139°46'0 0.0
2018-Jun-13 11:11N 35°39' E 139°46'0 0.0
2018-Jun-13 06:35N 35°39' E 139°46'0 0.0
2018-Jun-13 06:17N 35°39' E 139°46'0 0.0
2018-Jun-13 05:53N 35°39' E 139°46'0 0.0
2018-Jun-13 05:29N 35°39' E 139°46'0 0.0
2018-Jun-12 23:05N 35°39' E 139°46'0 0.0
2018-Jun-12 15:59N 35°39' E 139°46'0 0.0
2018-Jun-12 15:29N 35°39' E 139°46'0 0.0
2018-Jun-12 14:59N 35°39' E 139°46'0 0.0
2018-Jun-12 14:23N 35°39' E 139°46'0 0.0
2018-Jun-12 13:59N 35°39' E 139°46'0 0.0
2018-Jun-12 12:35N 35°39' E 139°46'0 0.0
2018-Jun-12 12:29N 35°39' E 139°46'0 0.0
2018-Jun-12 11:53N 35°39' E 139°46'0 0.0
2018-Jun-12 11:23N 35°39' E 139°46'0 0.0
2018-Jun-12 02:17N 35°39' E 139°46'0 0.0
2018-Jun-12 01:11N 35°39' E 139°46'0 0.0
2018-Jun-12 00:53N 35°39' E 139°46'0 0.0
2018-Jun-12 00:17N 35°39' E 139°46'0 0.0
2018-Jun-11 22:17N 35°39' E 139°46'0 0.0
2018-Jun-11 21:53N 35°39' E 139°46'0 0.0
2018-Jun-11 21:23N 35°39' E 139°46'0 0.0
2018-Jun-11 15:53N 35°39' E 139°46'0 0.0
2018-Jun-11 15:29N 35°39' E 139°46'0 0.0
2018-Jun-11 14:17N 35°39' E 139°46'0 0.0
2018-Jun-11 13:53N 35°39' E 139°46'0 0.0
2018-Jun-11 13:11N 35°39' E 139°46'0 0.0
2018-Jun-11 12:59N 35°39' E 139°46'0 0.0
2018-Jun-11 11:53N 35°39' E 139°46'0 0.0
2018-Jun-11 11:29N 35°39' E 139°46'0 0.0
2018-Jun-11 10:41N 35°39' E 139°46'0 0.0
2018-Jun-11 10:17N 35°39' E 139°46'0 0.0
2018-Jun-10 21:41N 35°39' E 139°46'0 0.0
2018-Jun-10 21:23N 35°39' E 139°46'0 0.0
2018-Jun-10 19:41N 35°39' E 139°46'0 0.0
2018-Jun-10 19:29N 35°39' E 139°46'0 0.0
2018-Jun-10 18:41N 35°39' E 139°46'0 0.0
2018-Jun-10 13:59N 35°39' E 139°46'0 0.0
2018-Jun-10 08:11N 35°39' E 139°46'0 0.0
2018-Jun-10 07:59N 35°39' E 139°46'0 0.0
2018-Jun-10 05:53N 35°39' E 139°46'0 0.0
2018-Jun-10 05:29N 35°39' E 139°46'0 0.0
2018-Jun-10 03:35N 35°39' E 139°46'0 0.0
2018-Jun-10 03:23N 35°39' E 139°46'0 0.0
2018-Jun-10 02:47N 35°39' E 139°46'0 0.0
2018-Jun-10 02:23N 35°39' E 139°46'0 0.0
2018-Jun-10 00:41N 35°39' E 139°46'0 0.0
2018-Jun-10 00:29N 35°39' E 139°46'0 0.0
2018-Jun-09 23:41N 35°39' E 139°46'0 0.0
2018-Jun-09 21:29N 35°39' E 139°46'0 0.0
2018-Jun-09 20:59N 35°39' E 139°46'0 0.0
2018-Jun-09 20:17N 35°39' E 139°46'0 0.0
2018-Jun-09 19:47N 35°39' E 139°46'0 0.0
2018-Jun-09 18:41N 35°39' E 139°46'0 0.0
2018-Jun-09 18:23N 35°39' E 139°46'0 0.0
2018-Jun-09 17:05N 35°39' E 139°46'0 0.0
2018-Jun-09 14:47N 35°39' E 139°46'0 0.0
2018-Jun-09 14:29N 35°39' E 139°46'0 0.0
2018-Jun-09 13:41N 35°39' E 139°46'0 0.0
2018-Jun-09 13:05N 35°39' E 139°46'0 0.0
2018-Jun-09 12:41N 35°39' E 139°46'0 0.0
2018-Jun-09 12:11N 35°39' E 139°46'0 0.0
2018-Jun-09 11:53N 35°39' E 139°46'0 0.0
2018-Jun-09 10:59N 35°39' E 139°46'0 0.0
2018-Jun-09 10:17N 35°39' E 139°46'0 0.0
2018-Jun-09 09:41N 35°39' E 139°46'0 0.0
2018-Jun-09 09:23N 35°39' E 139°46'0 0.0
2018-Jun-09 08:59N 35°39' E 139°46'0 0.0
2018-Jun-09 07:41N 35°39' E 139°46'0 0.0
2018-Jun-09 07:29N 35°39' E 139°46'0 0.0
2018-Jun-09 06:59N 35°39' E 139°46'0 0.0
2018-Jun-09 06:05N 35°39' E 139°46'0 0.0
2018-Jun-09 05:47N 35°39' E 139°46'0 0.0
2018-Jun-09 05:23N 35°39' E 139°46'0 0.0
2018-Jun-09 04:59N 35°39' E 139°46'0 0.0
2018-Jun-09 00:11N 35°39' E 139°46'0 0.0
2018-Jun-08 23:41N 35°39' E 139°46'0 0.0
2018-Jun-08 23:29N 35°39' E 139°46'0 0.0
2018-Jun-08 22:23N 35°39' E 139°46'0 0.0
2018-Jun-08 20:47N 35°39' E 139°46'0 0.0
2018-Jun-08 20:23N 35°39' E 139°46'0 0.0
2018-Jun-08 19:59N 35°39' E 139°46'0 0.0
2018-Jun-08 19:29N 35°39' E 139°46'0 0.0
2018-Jun-08 18:35N 35°39' E 139°46'0 0.0
2018-Jun-08 18:23N 35°39' E 139°46'0 0.0
2018-Jun-08 15:05N 35°39' E 139°46'0 0.0
2018-Jun-08 13:35N 35°39' E 139°46'0 0.0
2018-Jun-08 13:29N 35°39' E 139°46'0 0.0
2018-Jun-08 12:53N 35°39' E 139°46'0 0.0
2018-Jun-08 12:29N 35°39' E 139°46'0 0.0
2018-Jun-08 11:59N 35°39' E 139°46'0 0.0
2018-Jun-08 09:35N 35°39' E 139°46'0 0.0
2018-Jun-08 09:23N 35°39' E 139°46'0 0.0
2018-Jun-08 08:53N 35°39' E 139°46'0 0.0
2018-Jun-08 04:41N 35°39' E 139°46'0 0.0
2018-Jun-08 00:17N 35°39' E 139°46'0 0.0
2018-Jun-07 23:53N 35°39' E 139°46'0 0.0
2018-Jun-07 23:23N 35°39' E 139°46'0 0.0
2018-Jun-07 22:59N 35°39' E 139°46'0 0.0
2018-Jun-07 22:17N 35°39' E 139°46'0 0.0
2018-Jun-07 21:59N 35°39' E 139°46'0 0.0
2018-Jun-07 21:29N 35°39' E 139°46'0 0.0
2018-Jun-07 20:17N 35°39' E 139°46'0 0.0
2018-Jun-07 19:53N 35°39' E 139°46'0 0.0
2018-Jun-07 18:59N 35°39' E 139°46'0 0.0
2018-Jun-07 18:23N 35°39' E 139°46'0 0.0
2018-Jun-07 17:59N 35°39' E 139°46'0 0.0
2018-Jun-07 17:23N 35°39' E 139°46'0 0.0
2018-Jun-07 15:11N 35°39' E 139°46'0 0.0
2018-Jun-07 14:17N 35°39' E 139°46'0 0.0
2018-Jun-07 13:59N 35°39' E 139°46'0 0.0
2018-Jun-07 13:29N 35°39' E 139°46'0 0.0
2018-Jun-07 12:59N 35°39' E 139°46'0 0.0
2018-Jun-07 10:53N 35°39' E 139°46'0 0.0
2018-Jun-07 10:23N 35°39' E 139°46'0 0.0
2018-Jun-07 04:47N 35°39' E 139°46'0 0.0
2018-Jun-07 01:17N 35°39' E 139°46'0 0.0
2018-Jun-07 00:59N 35°39' E 139°46'0 0.0
2018-Jun-07 00:29N 35°39' E 139°46'0 0.0
2018-Jun-06 23:59N 35°39' E 139°46'0 0.0
2018-Jun-06 23:23N 35°39' E 139°46'0 0.0
2018-Jun-06 22:53N 35°39' E 139°46'0 0.0
2018-Jun-06 22:23N 35°39' E 139°46'0 0.0
2018-Jun-06 21:59N 35°39' E 139°46'0 0.0
2018-Jun-06 21:23N 35°39' E 139°46'0 0.0
2018-Jun-06 20:59N 35°39' E 139°46'0 0.0
2018-Jun-06 20:29N 35°39' E 139°46'0 0.0
2018-Jun-06 19:47N 35°39' E 139°46'0 0.0
2018-Jun-06 19:29N 35°39' E 139°46'0 0.0
2018-Jun-06 18:53N 35°39' E 139°46'0 0.0
2018-Jun-06 18:29N 35°39' E 139°46'0 0.0
2018-Jun-06 17:53N 35°39' E 139°46'0 0.0
2018-Jun-06 17:29N 35°39' E 139°46'0 0.0
2018-Jun-06 16:17N 35°39' E 139°46'0 0.0
2018-Jun-06 15:35N 35°39' E 139°46'0 0.0
2018-Jun-06 15:23N 35°39' E 139°46'0 0.0
2018-Jun-06 14:53N 35°39' E 139°46'0 0.0
2018-Jun-06 14:23N 35°39' E 139°46'0 0.0
2018-Jun-06 13:41N 35°39' E 139°46'0 0.0
2018-Jun-06 13:05N 35°39' E 139°46'0 0.0
2018-Jun-06 11:41N 35°39' E 139°46'0 0.0
2018-Jun-06 11:17N 35°39' E 139°46'0 0.0
2018-Jun-06 10:46N 35°39' E 139°46'0 0.0
2018-Jun-06 06:05N 35°39' E 139°46'0 0.0
2018-Jun-06 05:53N 35°39' E 139°46'0 0.0
2018-Jun-06 03:53N 35°39' E 139°46'0 0.0
2018-Jun-06 03:22N 35°39' E 139°46'0 0.0
2018-Jun-06 01:59N 35°39' E 139°46'0 0.0
2018-Jun-06 01:22N 35°39' E 139°46'0 0.0
2018-Jun-05 22:46N 35°39' E 139°46'0 0.0
2018-Jun-05 22:28N 35°39' E 139°46'0 0.0
2018-Jun-05 21:52N 35°39' E 139°46'0 0.0
2018-Jun-05 21:28N 35°39' E 139°46'0 0.0
2018-Jun-05 20:46N 35°39' E 139°46'0 0.0
2018-Jun-05 19:28N 35°39' E 139°46'0 0.0
2018-Jun-05 18:58N 35°39' E 139°46'0 0.0
2018-Jun-05 18:28N 35°39' E 139°46'0 0.0
2018-Jun-05 17:52N 35°39' E 139°46'0 0.0
2018-Jun-05 17:22N 35°39' E 139°46'0 0.0
2018-Jun-05 16:58N 35°39' E 139°46'0 0.0
2018-Jun-05 16:28N 35°39' E 139°46'0 0.0
2018-Jun-05 15:17N 35°39' E 139°46'0 0.0
2018-Jun-05 14:58N 35°39' E 139°46'0 0.0
2018-Jun-05 14:28N 35°39' E 139°46'0 0.0
2018-Jun-05 13:10N 35°39' E 139°46'0 0.0
2018-Jun-05 12:04N 35°39' E 139°46'0 0.0
2018-Jun-05 11:58N 35°39' E 139°46'0 0.0
2018-Jun-05 11:16N 35°39' E 139°46'0 0.0
2018-Jun-05 10:58N 35°39' E 139°46'0 0.0
2018-Jun-05 08:22N 35°39' E 139°46'0 0.0
2018-Jun-05 07:04N 35°39' E 139°46'0 0.0
2018-Jun-05 06:58N 35°39' E 139°46'0 0.0
2018-Jun-05 02:34N 35°39' E 139°46'0 0.0
2018-Jun-04 23:28N 35°39' E 139°46'0 0.0
2018-Jun-04 22:58N 35°39' E 139°46'0 0.0
2018-Jun-04 21:52N 35°39' E 139°46'0 0.0
2018-Jun-04 21:28N 35°39' E 139°46'0 0.0
2018-Jun-04 20:46N 35°39' E 139°46'0 0.0
2018-Jun-04 18:46N 35°39' E 139°46'0 0.0
2018-Jun-04 17:16N 35°39' E 139°46'0 0.0
2018-Jun-04 16:58N 35°39' E 139°46'0 0.0
2018-Jun-04 16:22N 35°39' E 139°46'0 0.0
2018-Jun-04 15:52N 35°39' E 139°46'0 0.0
2018-Jun-04 15:28N 35°39' E 139°46'0 0.0
2018-Jun-04 14:52N 35°39' E 139°46'0 0.0
2018-Jun-04 14:16N 35°39' E 139°46'0 0.0
2018-Jun-04 11:58N 35°39' E 139°46'0 0.0
2018-Jun-04 10:40N 35°39' E 139°46'  

Dump ship's entire track history